Diyarbakır Airport

LTCC · Diyarbakır, 土耳其

罗盘
风向 的 Diyarbakir Airport 16/34
风: 0 kt, 0 beaufort


改变
0 ft 2.000 4.000 6.000 8.000 10.000
Cloud Cloud Cloud Cloud
SCT 4.000
Cloud Cloud Cloud Cloud Cloud Cloud
BKN 10.000
METAR LTCC 231620Z 00000KT 9999 SCT040 BKN100 07/06 Q1023 NOSIG RMK RWY16 00000KT 3CU040 5AC100

METAR Diyarbakir Airport - LTCC/DIY

Diyarbakir Airport是,土耳其中的中型机场。 该机场位于纬度37,89390和经度40,20100。 该机场有一条跑道: 16/34. 本场的ICAO机场代码为LTCC。 该机场的IATA代码为DIY。 机场在Ankara FIR中。

该航空气象观测是针对Diyarbakir Airport在2024年2月23日 19:20, 当地时间进行的。

机场观察

可变方向的风很小或没有风。

可见度为10 km 或者更多。

有疏云,零星散落的云朵在4.000 ft的高度 和 碎云在10.000 ft的高度。 破损或更高的上限为10.000 ft。

温度和风寒是7 °C。 露点为6 °C,相对湿度为93%。 海平面上的气压为1023 hPa (QNH)。

白天

今天,太阳从06:59升起,在18:05降落。 这适用于Diyarbakir Airport,世界夏令时可能有所不同。 当地时间与世界标准时间之间的时差为+3 小时。 当前,没有夏令时有效。

公司介绍

我们没有关于这个机场的公司信息。

体会

到Vliegles.nl去找飞行课程,跳伞和其他飞行体验。 浏览页面,了解Diyarbakir Airport附近所有可用的活动。 你也可以使用搜索功能来寻找你所在地附近的特定飞行课程、跳伞或其他飞行体验。

跑道

Id 标题 侧风 逆风 侧风 %
16/34 162°-342°

逆风成分最大的方向会被突出显示,并用于横风计算。 这并不一定意味着这个方向在使用。

乌云

4.000 ft SCT 疏云,零星散落的云朵
10.000 ft BKN 碎云

温度 & 天气

温度 7 °C
露点 6 °C
相对湿度 93%
Kp-index 0 (0-9)

评论

RWY16 00000KT 3CU040 5AC100

白天

日出
06:59 (11:06)
中午
12:32
日落
18:05

小工具

你想在你的网站上有一个关于Diyarbakir Airport的当前航空天气(METAR)的小部件吗?

显示HTML代码
?>